createdAt,value
2022-12-25T00:01:50.274Z,46.70
2022-12-25T00:04:16.856Z,43.80
2022-12-25T00:06:43.701Z,206.82
2022-12-25T00:09:10.508Z,230.48
2022-12-25T00:11:40.713Z,337.02
2022-12-25T00:14:07.414Z,190.18
2022-12-25T00:16:34.242Z,254.90
2022-12-25T00:19:01.504Z,325.80
2022-12-25T00:21:28.786Z,282.63
2022-12-25T00:23:57.713Z,270.63
2022-12-25T00:26:25.549Z,341.42
2022-12-25T00:28:57.152Z,111.07
2022-12-25T00:31:24.921Z,99.63
2022-12-25T00:33:52.366Z,186.25
2022-12-25T00:36:21.266Z,144.60
2022-12-25T00:38:48.328Z,148.75
2022-12-25T00:41:17.764Z,155.07
2022-12-25T00:43:44.433Z,191.02
2022-12-25T00:46:13.250Z,100.55
2022-12-25T00:48:40.610Z,177.85
2022-12-25T00:51:10.624Z,173.75
2022-12-25T00:53:37.120Z,195.48
2022-12-25T00:56:06.457Z,288.33
2022-12-25T00:58:34.146Z,74.70
2022-12-25T01:01:01.321Z,26.48
2022-12-25T01:03:28.297Z,24.55
2022-12-25T01:06:03.894Z,49.17
2022-12-25T01:08:32.738Z,26.13
2022-12-25T01:11:02.007Z,44.15
2022-12-25T01:13:29.415Z,37.10
2022-12-25T01:15:56.124Z,49.50
2022-12-25T01:18:25.597Z,58.83
2022-12-25T01:20:52.302Z,150.32
2022-12-25T01:23:18.916Z,28.25
2022-12-25T01:25:45.452Z,98.38
2022-12-25T01:28:12.064Z,28.38
2022-12-25T01:30:39.641Z,28.20
2022-12-25T01:33:06.433Z,21.95
2022-12-25T01:35:32.957Z,29.27
2022-12-25T01:37:59.616Z,29.00
2022-12-25T01:40:26.130Z,28.05
2022-12-25T01:42:53.138Z,31.15
2022-12-25T01:45:44.546Z,35.80
2022-12-25T01:48:18.211Z,40.28
2022-12-25T01:50:50.414Z,36.92
2022-12-25T01:53:17.121Z,31.55
2022-12-25T01:55:45.684Z,39.10
2022-12-25T01:58:12.537Z,82.53
2022-12-25T02:00:39.130Z,68.57
2022-12-25T02:03:06.441Z,48.22
2022-12-25T02:05:35.041Z,41.25
2022-12-25T02:08:08.129Z,31.98
2022-12-25T02:10:34.682Z,57.65
2022-12-25T02:13:02.075Z,37.10
2022-12-25T02:15:38.836Z,60.65
2022-12-25T02:18:16.798Z,77.05
2022-12-25T02:20:56.717Z,24.48
2022-12-25T02:23:42.171Z,93.22
2022-12-25T02:26:47.704Z,40.20
2022-12-25T02:29:33.184Z,16.98
2022-12-25T02:32:10.550Z,21.80
2022-12-25T02:35:07.554Z,19.85
2022-12-25T02:37:42.365Z,21.55
2022-12-25T02:40:18.627Z,23.25
2022-12-25T02:43:08.754Z,29.33
2022-12-25T02:46:01.062Z,15.70
2022-12-25T02:48:50.680Z,41.92
2022-12-25T02:51:38.994Z,32.40
2022-12-25T02:54:29.554Z,101.32
2022-12-25T02:57:16.700Z,97.78
2022-12-25T03:00:05.114Z,67.53
2022-12-25T03:02:52.639Z,59.40
2022-12-25T03:05:40.361Z,33.42
2022-12-25T03:08:11.526Z,39.42
2022-12-25T03:11:02.959Z,59.90
2022-12-25T03:13:34.558Z,23.60
2022-12-25T03:16:19.813Z,21.92
2022-12-25T03:18:46.680Z,30.90
2022-12-25T03:21:31.788Z,43.92
2022-12-25T03:24:20.576Z,29.88
2022-12-25T03:26:56.450Z,35.15
2022-12-25T03:29:50.962Z,118.70
2022-12-25T03:32:43.105Z,33.60
2022-12-25T03:35:29.718Z,90.47
2022-12-25T03:38:29.838Z,98.57
2022-12-25T03:41:38.321Z,39.53
2022-12-25T03:44:50.794Z,33.03
2022-12-25T03:47:35.461Z,42.80
2022-12-25T03:50:27.940Z,23.20
2022-12-25T03:53:15.781Z,68.57
2022-12-25T03:56:02.838Z,25.08
2022-12-25T03:58:47.918Z,58.83
2022-12-25T04:01:33.041Z,54.20
2022-12-25T04:04:18.844Z,26.73
2022-12-25T04:07:04.176Z,39.95
2022-12-25T04:09:49.197Z,31.65
2022-12-25T04:12:34.390Z,40.95
2022-12-25T04:15:19.835Z,53.65
2022-12-25T04:18:05.138Z,72.43
2022-12-25T04:20:50.554Z,30.15
2022-12-25T04:23:35.851Z,46.17
2022-12-25T04:26:20.770Z,49.40
2022-12-25T04:29:05.677Z,35.20
2022-12-25T04:31:50.450Z,47.45
2022-12-25T04:34:35.476Z,61.58
2022-12-25T04:37:02.043Z,72.70
2022-12-25T04:39:28.628Z,62.38
2022-12-25T04:41:55.224Z,48.35
2022-12-25T04:44:21.682Z,206.00
2022-12-25T04:46:48.429Z,56.75
2022-12-25T04:49:15.114Z,48.65
2022-12-25T04:51:41.848Z,38.22
2022-12-25T04:54:08.364Z,96.07
2022-12-25T04:56:40.062Z,72.60
2022-12-25T04:59:10.079Z,40.28
2022-12-25T05:01:36.830Z,73.28
2022-12-25T05:04:03.573Z,129.30
2022-12-25T05:06:30.229Z,100.88
2022-12-25T05:08:56.758Z,79.68
2022-12-25T05:11:23.286Z,111.72
2022-12-25T05:13:49.852Z,84.60
2022-12-25T05:16:18.812Z,154.98
2022-12-25T05:18:48.391Z,126.93
2022-12-25T05:21:15.497Z,69.32
2022-12-25T05:23:48.658Z,68.28
2022-12-25T05:26:17.304Z,128.30
2022-12-25T05:28:44.041Z,65.07
2022-12-25T05:31:11.358Z,82.07
2022-12-25T05:33:38.042Z,65.93
2022-12-25T05:36:06.533Z,60.30
2022-12-25T05:38:33.565Z,56.25
2022-12-25T05:41:00.361Z,50.33
2022-12-25T05:43:28.491Z,51.53
2022-12-25T05:45:55.364Z,50.42
2022-12-25T05:48:22.148Z,78.43
2022-12-25T05:50:49.015Z,84.72
2022-12-25T05:53:17.595Z,61.03
2022-12-25T05:55:44.342Z,71.15
2022-12-25T05:58:12.054Z,82.70
2022-12-25T06:00:41.364Z,45.65
2022-12-25T06:03:08.107Z,88.03
2022-12-25T06:05:37.745Z,97.38
2022-12-25T06:08:04.463Z,116.22
2022-12-25T06:10:33.587Z,68.55
2022-12-25T06:13:00.938Z,63.47
2022-12-25T06:15:27.741Z,32.00
2022-12-25T06:17:54.358Z,39.88
2022-12-25T06:20:20.982Z,45.95
2022-12-25T06:22:47.798Z,34.53
2022-12-25T06:25:14.680Z,55.78
2022-12-25T06:27:41.242Z,43.67
2022-12-25T06:30:08.553Z,39.95
2022-12-25T06:32:35.173Z,50.22
2022-12-25T06:35:01.769Z,44.67
2022-12-25T06:37:28.461Z,39.42
2022-12-25T06:39:55.158Z,39.83
2022-12-25T06:42:21.773Z,43.90
2022-12-25T06:44:48.300Z,49.08
2022-12-25T06:47:14.944Z,45.30
2022-12-25T06:49:41.689Z,33.45
2022-12-25T06:52:08.293Z,29.45
2022-12-25T06:54:34.853Z,37.33
2022-12-25T06:57:01.434Z,39.38
2022-12-25T06:59:27.992Z,37.88
2022-12-25T07:01:56.681Z,29.45
2022-12-25T07:04:28.339Z,38.80
2022-12-25T07:06:54.871Z,37.40
2022-12-25T07:09:23.643Z,38.83
2022-12-25T07:11:50.259Z,35.47
2022-12-25T07:14:24.416Z,34.58
2022-12-25T07:16:54.611Z,46.72
2022-12-25T07:19:21.749Z,40.88
2022-12-25T07:21:48.475Z,37.80
2022-12-25T07:24:20.588Z,76.35
2022-12-25T07:26:47.923Z,46.40
2022-12-25T07:29:14.573Z,54.70
2022-12-25T07:31:41.472Z,75.85
2022-12-25T07:34:08.241Z,67.53
2022-12-25T07:36:34.915Z,62.28
2022-12-25T07:39:01.716Z,78.80
2022-12-25T07:41:29.571Z,94.38
2022-12-25T07:43:56.239Z,120.32
2022-12-25T07:46:23.476Z,77.88
2022-12-25T07:48:50.101Z,171.63
2022-12-25T07:51:16.704Z,187.70
2022-12-25T07:53:44.394Z,113.82
2022-12-25T07:56:16.905Z,194.25
2022-12-25T07:58:44.627Z,249.10
2022-12-25T08:01:18.386Z,243.32
2022-12-25T08:03:49.752Z,192.20
2022-12-25T08:06:16.489Z,203.38
2022-12-25T08:08:43.022Z,278.27
2022-12-25T08:11:10.680Z,315.92
2022-12-25T08:13:37.627Z,157.60
2022-12-25T08:16:07.969Z,76.22
2022-12-25T08:18:37.076Z,137.70
2022-12-25T08:21:12.195Z,139.85
2022-12-25T08:23:41.546Z,161.68
2022-12-25T08:26:10.767Z,157.05
2022-12-25T08:28:37.796Z,108.20
2022-12-25T08:31:17.104Z,84.38
2022-12-25T08:33:44.300Z,79.75
2022-12-25T08:36:12.484Z,145.63
2022-12-25T08:38:39.761Z,126.75
2022-12-25T08:41:06.907Z,154.52
2022-12-25T08:43:33.935Z,360.52
2022-12-25T08:46:00.621Z,363.05
2022-12-25T08:48:27.619Z,676.15
2022-12-25T08:50:54.587Z,648.22
2022-12-25T08:53:21.959Z,197.88
2022-12-25T08:55:48.966Z,120.80
2022-12-25T08:58:16.872Z,197.80
2022-12-25T09:00:43.409Z,326.65
2022-12-25T09:03:10.007Z,345.35
2022-12-25T09:05:37.372Z,351.33
2022-12-25T09:08:06.784Z,403.27
2022-12-25T09:10:37.115Z,332.63
2022-12-25T09:13:05.833Z,412.25
2022-12-25T09:15:32.643Z,344.88
2022-12-25T09:18:00.267Z,361.67
2022-12-25T09:20:28.248Z,354.17
2022-12-25T09:22:54.759Z,376.67
2022-12-25T09:25:21.255Z,353.67
2022-12-25T09:27:47.953Z,362.13
2022-12-25T09:30:15.189Z,385.40
2022-12-25T09:32:44.674Z,408.08
2022-12-25T09:35:13.927Z,388.65
2022-12-25T09:37:40.978Z,288.08
2022-12-25T09:40:08.422Z,334.52
2022-12-25T09:42:35.231Z,329.42
2022-12-25T09:45:10.945Z,249.68
2022-12-25T09:47:42.012Z,346.73
2022-12-25T09:50:46.032Z,343.02
2022-12-25T09:53:19.034Z,283.52
2022-12-25T09:56:19.354Z,307.45
2022-12-25T09:58:45.886Z,320.83
2022-12-25T10:01:14.646Z,390.10
2022-12-25T10:03:59.650Z,283.60
2022-12-25T10:06:56.680Z,389.10
2022-12-25T10:12:27.505Z,292.23
2022-12-25T10:15:23.058Z,336.85
2022-12-25T10:18:03.551Z,291.63
2022-12-25T10:20:53.204Z,288.50
2022-12-25T10:23:25.570Z,220.25
2022-12-25T10:25:53.812Z,268.67
2022-12-25T10:28:34.005Z,195.93
2022-12-25T10:31:23.553Z,265.48
2022-12-25T10:33:59.499Z,241.68
2022-12-25T10:36:39.667Z,179.15
2022-12-25T10:39:06.229Z,154.38
2022-12-25T10:41:54.294Z,93.63
2022-12-25T10:44:24.570Z,111.53
2022-12-25T10:46:55.091Z,109.45
2022-12-25T10:49:25.368Z,93.07
2022-12-25T10:51:52.220Z,76.57
2022-12-25T10:54:21.931Z,70.38
2022-12-25T10:57:00.763Z,77.72
2022-12-25T10:59:29.581Z,73.45
2022-12-25T11:02:03.515Z,55.17
2022-12-25T11:04:37.408Z,66.82
2022-12-25T11:07:13.307Z,65.38
2022-12-25T11:09:41.041Z,70.57
2022-12-25T11:12:18.110Z,58.53
2022-12-25T11:14:56.910Z,53.97
2022-12-25T11:17:25.629Z,71.10
2022-12-25T11:19:55.130Z,68.40
2022-12-25T11:22:25.256Z,66.65
2022-12-25T11:24:52.199Z,65.30
2022-12-25T11:27:24.793Z,59.60
2022-12-25T11:30:03.568Z,55.50
2022-12-25T11:32:43.622Z,63.97
2022-12-25T11:35:16.102Z,85.25
2022-12-25T11:37:49.580Z,67.85
2022-12-25T11:40:20.759Z,76.63
2022-12-25T11:42:57.480Z,66.15
2022-12-25T11:45:33.484Z,87.97
2022-12-25T11:48:03.308Z,80.30
2022-12-25T11:50:41.106Z,72.00
2022-12-25T11:53:35.095Z,67.50
2022-12-25T11:56:06.967Z,66.20
2022-12-25T11:58:38.785Z,58.85
2022-12-25T12:01:26.801Z,57.60
2022-12-25T12:03:54.583Z,58.42
2022-12-25T12:06:32.969Z,54.17
2022-12-25T12:09:36.443Z,59.92
2022-12-25T12:12:17.029Z,51.58
2022-12-25T12:14:55.855Z,50.17
2022-12-25T12:17:22.403Z,48.90
2022-12-25T12:19:50.145Z,37.85
2022-12-25T12:22:23.892Z,40.97
2022-12-25T12:25:04.478Z,45.58
2022-12-25T12:27:36.606Z,43.15
2022-12-25T12:30:05.764Z,51.75
2022-12-25T12:32:42.299Z,43.97
2022-12-25T12:35:11.716Z,41.47
2022-12-25T12:37:40.807Z,37.10
2022-12-25T12:40:27.363Z,39.70
2022-12-25T12:42:56.970Z,41.65
2022-12-25T12:45:28.045Z,39.33
2022-12-25T12:47:55.441Z,43.60
2022-12-25T12:50:41.187Z,39.10
2022-12-25T12:53:23.508Z,39.47
2022-12-25T12:55:52.443Z,44.92
2022-12-25T12:58:33.716Z,48.17
2022-12-25T13:01:23.999Z,48.63
2022-12-25T13:04:06.385Z,55.97
2022-12-25T13:06:40.784Z,50.47
2022-12-25T13:09:45.357Z,41.60
2022-12-25T13:12:15.513Z,45.83
2022-12-25T13:14:51.141Z,38.05
2022-12-25T13:17:23.550Z,55.45
2022-12-25T13:20:00.637Z,45.83
2022-12-25T13:22:33.454Z,43.22
2022-12-25T13:25:02.880Z,39.95
2022-12-25T13:27:31.573Z,44.80
2022-12-25T13:29:59.273Z,42.13
2022-12-25T13:32:30.864Z,38.53
2022-12-25T13:34:58.438Z,41.83
2022-12-25T13:37:27.645Z,40.63
2022-12-25T13:39:58.980Z,44.08
2022-12-25T13:42:28.714Z,37.55
2022-12-25T13:44:58.647Z,44.78
2022-12-25T13:47:28.777Z,32.90
2022-12-25T13:49:57.235Z,47.92
2022-12-25T13:52:36.234Z,34.85
2022-12-25T13:55:10.953Z,39.10
2022-12-25T13:57:39.925Z,32.45
2022-12-25T14:00:08.871Z,29.08
2022-12-25T14:02:38.073Z,30.17
2022-12-25T14:05:32.399Z,32.67
2022-12-25T14:08:17.205Z,23.05
2022-12-25T14:10:46.381Z,32.28
2022-12-25T14:13:15.465Z,24.98
2022-12-25T14:15:43.089Z,31.33
2022-12-25T14:18:15.888Z,24.25
2022-12-25T14:20:59.082Z,26.50
2022-12-25T14:23:25.892Z,28.23
2022-12-25T14:25:52.915Z,25.92
2022-12-25T14:28:23.828Z,22.85
2022-12-25T14:30:51.033Z,29.08
2022-12-25T14:33:21.082Z,32.53
2022-12-25T14:35:48.466Z,22.23
2022-12-25T14:38:29.665Z,23.85
2022-12-25T14:41:00.895Z,21.83
2022-12-25T14:43:28.686Z,27.05
2022-12-25T14:46:06.973Z,21.40
2022-12-25T14:48:36.355Z,25.08
2022-12-25T14:51:15.749Z,25.33
2022-12-25T14:53:51.717Z,34.35
2022-12-25T14:56:23.055Z,32.60
2022-12-25T14:58:53.232Z,29.52
2022-12-25T15:01:23.486Z,24.15
2022-12-25T15:03:50.729Z,26.38
2022-12-25T15:06:27.779Z,26.38
2022-12-25T15:09:00.373Z,35.38
2022-12-25T15:11:27.731Z,22.90
2022-12-25T15:13:54.827Z,31.40
2022-12-25T15:16:28.745Z,34.15
2022-12-25T15:18:55.521Z,28.20
2022-12-25T15:21:26.466Z,27.33
2022-12-25T15:23:58.040Z,28.00
2022-12-25T15:26:26.417Z,24.15
2022-12-25T15:28:55.794Z,32.75
2022-12-25T15:31:33.263Z,28.33
2022-12-25T15:34:02.411Z,26.63
2022-12-25T15:36:30.172Z,26.75
2022-12-25T15:38:56.915Z,26.20
2022-12-25T15:41:48.442Z,26.73
2022-12-25T15:44:16.599Z,25.23
2022-12-25T15:46:43.443Z,27.48
2022-12-25T15:49:11.568Z,18.23
2022-12-25T15:51:38.790Z,26.27
2022-12-25T15:54:05.567Z,25.13
2022-12-25T15:56:40.802Z,33.28
2022-12-25T15:59:09.211Z,27.02
2022-12-25T16:01:36.381Z,23.83
2022-12-25T16:04:04.509Z,25.92
2022-12-25T16:06:31.018Z,26.75
2022-12-25T16:08:57.537Z,27.55
2022-12-25T16:11:24.241Z,29.00
2022-12-25T16:13:50.908Z,25.20
2022-12-25T16:16:17.540Z,26.83
2022-12-25T16:18:47.739Z,22.52
2022-12-25T16:21:17.489Z,28.02
2022-12-25T16:23:44.036Z,23.15
2022-12-25T16:26:12.936Z,22.73
2022-12-25T16:28:39.716Z,24.23
2022-12-25T16:31:06.340Z,28.92
2022-12-25T16:33:33.093Z,26.67
2022-12-25T16:36:00.060Z,22.67
2022-12-25T16:38:26.770Z,32.78
2022-12-25T16:40:59.225Z,30.63
2022-12-25T16:43:25.770Z,27.35
2022-12-25T16:45:52.634Z,27.48
2022-12-25T16:48:20.342Z,28.52
2022-12-25T16:50:47.146Z,23.60
2022-12-25T16:53:13.873Z,27.73
2022-12-25T16:55:40.566Z,29.77
2022-12-25T16:58:07.176Z,31.60
2022-12-25T17:00:33.883Z,32.47
2022-12-25T17:03:01.122Z,27.08
2022-12-25T17:05:27.876Z,29.85
2022-12-25T17:07:54.562Z,35.33
2022-12-25T17:10:21.501Z,34.22
2022-12-25T17:12:48.095Z,28.02
2022-12-25T17:15:16.194Z,36.03
2022-12-25T17:17:42.751Z,33.95
2022-12-25T17:20:09.625Z,28.75
2022-12-25T17:22:36.255Z,34.28
2022-12-25T17:25:02.825Z,29.77
2022-12-25T17:27:29.332Z,27.35
2022-12-25T17:29:55.832Z,30.90
2022-12-25T17:32:22.505Z,26.70
2022-12-25T17:34:49.245Z,35.58
2022-12-25T17:37:15.909Z,37.17
2022-12-25T17:39:42.594Z,33.55
2022-12-25T17:42:09.096Z,27.98
2022-12-25T17:44:36.990Z,25.00
2022-12-25T17:47:03.963Z,31.52
2022-12-25T17:49:31.195Z,35.42
2022-12-25T17:51:59.042Z,33.45
2022-12-25T17:54:25.944Z,38.53
2022-12-25T17:56:52.619Z,41.28
2022-12-25T17:59:19.377Z,38.88
2022-12-25T18:01:47.370Z,32.15
2022-12-25T18:04:14.229Z,35.75
2022-12-25T18:06:41.902Z,35.38
2022-12-25T18:09:09.880Z,31.80
2022-12-25T18:11:42.294Z,32.63
2022-12-25T18:14:13.557Z,34.22
2022-12-25T18:16:43.537Z,33.55
2022-12-25T18:19:16.185Z,37.80
2022-12-25T18:21:43.049Z,33.33
2022-12-25T18:24:09.927Z,33.25
2022-12-25T18:26:37.064Z,35.42
2022-12-25T18:29:03.897Z,30.55
2022-12-25T18:31:30.945Z,39.88
2022-12-25T18:33:58.988Z,29.00
2022-12-25T18:36:28.179Z,41.30
2022-12-25T18:38:56.010Z,35.05
2022-12-25T18:41:23.371Z,36.10
2022-12-25T18:43:53.159Z,36.10
2022-12-25T18:46:24.801Z,36.92
2022-12-25T18:48:55.001Z,29.20
2022-12-25T18:51:21.788Z,33.10
2022-12-25T18:53:48.497Z,28.63
2022-12-25T18:56:18.835Z,29.13
2022-12-25T18:58:47.544Z,30.05
2022-12-25T19:01:22.862Z,33.42
2022-12-25T19:03:57.202Z,26.77
2022-12-25T19:06:29.226Z,31.58
2022-12-25T19:08:57.012Z,30.10
2022-12-25T19:11:23.959Z,30.33
2022-12-25T19:13:50.769Z,37.97
2022-12-25T19:16:17.971Z,30.65
2022-12-25T19:18:44.518Z,30.38
2022-12-25T19:21:11.293Z,29.80
2022-12-25T19:23:38.638Z,28.05
2022-12-25T19:26:07.015Z,25.88
2022-12-25T19:28:33.688Z,27.60
2022-12-25T19:31:02.325Z,30.65
2022-12-25T19:33:31.887Z,24.48
2022-12-25T19:36:06.157Z,30.38
2022-12-25T19:38:34.545Z,32.88
2022-12-25T19:41:07.948Z,29.65
2022-12-25T19:43:40.783Z,25.48
2022-12-25T19:46:10.514Z,28.23
2022-12-25T19:48:37.689Z,24.65
2022-12-25T19:51:05.010Z,23.50
2022-12-25T19:53:31.592Z,28.50
2022-12-25T19:56:01.694Z,26.27
2022-12-25T19:58:28.518Z,26.05
2022-12-25T20:01:05.282Z,28.05
2022-12-25T20:03:33.295Z,27.98
2022-12-25T20:06:02.076Z,26.77
2022-12-25T20:08:28.949Z,22.42
2022-12-25T20:10:55.644Z,27.52
2022-12-25T20:13:22.582Z,24.15
2022-12-25T20:15:49.266Z,25.95
2022-12-25T20:18:37.246Z,23.05
2022-12-25T20:24:18.062Z,22.17
2022-12-25T20:26:51.483Z,24.75
2022-12-25T20:29:57.729Z,24.90
2022-12-25T20:32:54.878Z,27.13
2022-12-25T20:35:48.056Z,23.30
2022-12-25T20:38:15.635Z,24.05
2022-12-25T20:41:25.847Z,20.42
2022-12-25T20:43:45.734Z,22.45
2022-12-25T20:46:13.307Z,25.98
2022-12-25T20:48:45.907Z,20.75
2022-12-25T20:51:18.678Z,21.27
2022-12-25T20:53:46.343Z,21.58
2022-12-25T20:56:15.209Z,22.55
2022-12-25T20:58:44.562Z,24.75
2022-12-25T21:01:13.750Z,26.00
2022-12-25T21:03:41.436Z,24.70
2022-12-25T21:06:11.721Z,25.30
2022-12-25T21:08:39.383Z,23.75
2022-12-25T21:11:06.507Z,25.73
2022-12-25T21:13:37.147Z,28.25
2022-12-25T21:16:09.698Z,26.40
2022-12-25T21:18:36.340Z,24.65
2022-12-25T21:21:06.627Z,24.13
2022-12-25T21:23:35.235Z,23.65
2022-12-25T21:26:13.182Z,21.90
2022-12-25T21:28:39.712Z,23.25
2022-12-25T21:31:07.791Z,21.77
2022-12-25T21:33:53.068Z,20.45
2022-12-25T21:36:31.858Z,24.45
2022-12-25T21:39:06.604Z,23.85
2022-12-25T21:41:37.461Z,22.75
2022-12-25T21:44:04.597Z,28.98
2022-12-25T21:46:31.653Z,24.73
2022-12-25T21:48:59.354Z,26.30
2022-12-25T21:51:47.668Z,26.92
2022-12-25T21:54:15.600Z,23.75
2022-12-25T21:56:45.379Z,24.90
2022-12-25T21:59:17.759Z,24.63
2022-12-25T22:01:48.278Z,21.35
2022-12-25T22:04:16.495Z,19.13
2022-12-25T22:07:03.306Z,20.70
2022-12-25T22:09:30.188Z,21.85
2022-12-25T22:12:15.286Z,18.83
2022-12-25T22:14:55.251Z,23.52
2022-12-25T22:17:46.704Z,20.80
2022-12-25T22:20:28.415Z,23.85
2022-12-25T22:22:58.518Z,20.27
2022-12-25T22:25:27.648Z,19.88
2022-12-25T22:27:57.037Z,16.65
2022-12-25T22:30:32.523Z,18.98
2022-12-25T22:32:59.223Z,16.67
2022-12-25T22:36:02.773Z,17.50
2022-12-25T22:38:53.023Z,19.40
2022-12-25T22:48:08.075Z,13.90
2022-12-25T22:51:38.134Z,19.38
2022-12-25T22:54:05.092Z,15.75
2022-12-25T22:56:46.931Z,16.35
2022-12-25T22:59:26.764Z,19.52
2022-12-25T23:02:11.364Z,15.93
2022-12-25T23:05:14.872Z,16.83
2022-12-25T23:07:49.132Z,15.73
2022-12-25T23:10:26.611Z,14.48
2022-12-25T23:13:11.769Z,17.73
2022-12-25T23:18:56.112Z,17.98
2022-12-25T23:21:45.676Z,13.10
2022-12-25T23:24:31.157Z,16.92
2022-12-25T23:27:01.306Z,14.38
2022-12-25T23:29:55.433Z,18.75
2022-12-25T23:32:27.755Z,14.80
2022-12-25T23:34:57.084Z,15.55
2022-12-25T23:37:27.423Z,16.15
2022-12-25T23:40:03.176Z,20.92
2022-12-25T23:42:42.962Z,19.90
2022-12-25T23:45:22.240Z,15.85
2022-12-25T23:47:53.306Z,17.25
2022-12-25T23:50:25.503Z,14.60
2022-12-25T23:56:01.810Z,14.80
2022-12-25T23:58:46.095Z,13.35
